• Join FlightAware (Why Join?)
  • Login
  • US Flag 
02:47PM EDT


 

Airport Tracker/Info


-or-


 

Live Flight TrackerFlight Track Log ✈ EGF4383 ✈ 11-Jun-2013 ✈ KCHO - KORD

Flight Track Log - Related Links

Times and Time Zones

All times are in EDT time to prevent confusion due to time zone crossing. See the EGF4383 flight status page for this flight to view local times or setup timezone preferences in your user account.

Time Position Orientation Groundspeed Altitude Reporting Facility
EDT Latitude Longitude Course Direction KTS MPH feet Rate Location/Type
04:55PM 38.0833 -78.5175 294° West 203 234 3,700  Level Washington Center
04:56PM 38.2441 -78.7655 293° West  Level FlightAware Approximate
04:56PM 38.1131 -78.5844 299° West 209 241 5,500  Level Washington Center
04:57PM 38.2868 -78.8692 299° West  Level FlightAware Approximate
04:57PM 38.1506 -78.6678 300° West 224 258 8,300  Level Washington Center
04:58PM 38.3303 -78.9726 298° West  Level FlightAware Approximate
04:58PM 38.1839 -78.7486 298° West 248 285 10,400  Level Washington Center
04:59PM 38.3735 -79.0762 298° West  Level FlightAware Approximate
04:59PM 38.2192 -78.8347 298° West 260 299 11,800  Level Washington Center
05:00PM 38.4126 -79.1825 294° West  Level FlightAware Approximate
05:00PM 38.2561 -78.9286 297° West 279 321 12,900  Level Washington Center
05:01PM 38.2953 -79.0178 299° West 310 357 14,000 1,020 Climbing Washington Center
05:02PM 38.3361 -79.1231 296° West 320 368 15,000 900 Climbing Washington Center
05:03PM 38.3808 -79.2283 298° West 332 382 15,900 1,020 Climbing Washington Center
05:04PM 38.4294 -79.3500 297° West 340 391 17,100 1,020 Climbing Washington Center
05:05PM 38.4739 -79.4611 297° West 340 391 18,000 900 Climbing Washington Center
05:06PM 38.5203 -79.5722 298° West 346 398 19,000 900 Climbing Washington Center
05:07PM 38.5625 -79.6753 298° West 346 398 19,900 900 Climbing Washington Center
05:08PM 38.6067 -79.7894 296° West 351 404 20,900 900 Climbing Washington Center
05:09PM 38.6544 -79.9064 298° West 356 410 21,800 960 Climbing Washington Center
05:09PM 38.6672 -79.9378 298° West 370 426 22,200 960 Climbing Indianapolis Center
05:10PM 38.7128 -80.0542 297° West 369 425 23,100 900 Climbing Indianapolis Center
05:11PM 38.7606 -80.1706 298° West 369 425 24,100 1,020 Climbing Indianapolis Center
05:12PM 38.8156 -80.3106 297° West 367 422 25,300 1,020 Climbing Indianapolis Center
05:13PM 38.8619 -80.4278 297° West 369 425 26,300 900 Climbing Indianapolis Center
05:14PM 38.9081 -80.5458 297° West 371 427 27,200 900 Climbing Indianapolis Center
05:15PM 38.9553 -80.6633 297° West 371 427 28,200 900 Climbing Indianapolis Center
05:16PM 39.0025 -80.7814 297° West 373 429 29,100 960 Climbing Indianapolis Center
05:17PM 39.0597 -80.9225 298° West 373 429 30,300 1,020 Climbing Indianapolis Center
05:18PM 39.1083 -81.0392 298° West 372 428 31,300 780 Climbing Indianapolis Center
05:19PM 39.1578 -81.1600 298° West 379 436 32,000 300 Climbing Indianapolis Center
05:20PM 39.2097 -81.2858 298° West 397 457 32,000  Level Indianapolis Center
05:21PM 39.2611 -81.4133 298° West 403 464 32,000  Level Indianapolis Center
05:22PM 39.3108 -81.5342 298° West 386 444 32,000  Level Indianapolis Center
05:23PM 39.3689 -81.6794 297° West 381 438 32,000  Level Indianapolis Center
05:24PM 39.4194 -81.8017 298° West 385 443 32,000  Level Indianapolis Center
05:25PM 39.4692 -81.9264 297° West 391 450 32,000  Level Indianapolis Center
05:26PM 39.5192 -82.0528 297° West 394 453 32,000  Level Indianapolis Center
05:27PM 39.5761 -82.1925 298° West 394 453 32,000  Level Indianapolis Center
05:28PM 39.6267 -82.3203 297° West 395 455 32,000  Level Indianapolis Center
05:30PM 39.6767 -82.4475 297° West 393 452 32,000  Level Indianapolis Center
05:31PM 39.7272 -82.5761 297° West 396 456 32,000  Level Indianapolis Center
05:32PM 39.7769 -82.7042 297° West 395 455 32,000  Level Indianapolis Center
05:33PM 39.8353 -82.8542 297° West 395 455 32,000  Level Indianapolis Center
05:34PM 39.8856 -82.9814 297° West 393 452 32,000  Level Indianapolis Center
05:35PM 39.9339 -83.1072 297° West 388 447 32,000  Level Indianapolis Center
05:36PM 39.9825 -83.2336 297° West 389 448 32,000  Level Indianapolis Center
05:37PM 40.0303 -83.3572 297° West 386 444 32,000  Level Indianapolis Center
05:38PM 40.0861 -83.5022 297° West 384 442 32,000  Level Indianapolis Center
05:39PM 40.1483 -83.6153 306° West 383 441 32,000  Level Indianapolis Center
05:40PM 40.2111 -83.7297 306° West 384 442 32,000  Level Indianapolis Center
05:41PM 40.2750 -83.8481 305° West 392 451 32,000  Level Indianapolis Center
05:42PM 40.3378 -83.9669 305° West 395 455 32,000  Level Indianapolis Center
05:43PM 40.4017 -84.0844 306° West 392 451 32,000  Level Indianapolis Center
05:44PM 40.4650 -84.2028 305° West 393 452 32,000  Level Indianapolis Center
05:45PM 40.5381 -84.3386 305° West 389 448 32,000  Level Indianapolis Center
05:46PM 40.5989 -84.4564 304° West 388 447 32,000  Level Indianapolis Center
05:47PM 40.6606 -84.5731 305° West 386 444 32,000  Level Indianapolis Center
05:48PM 40.7197 -84.6969 302° West 383 441 32,000  Level Chicago Center
05:50PM 40.8214 -84.9378 299° West 385 443 32,000  Level Indianapolis Center
05:51PM 40.8844 -85.0839 300° West 385 443 32,000 -180 Level Indianapolis Center
05:52PM 40.9369 -85.2067 300° West 384 442 31,700 -480 Descending Indianapolis Center
05:53PM 40.9872 -85.3289 299° West 382 440 31,000 -900 Descending Indianapolis Center
05:54PM 41.0450 -85.4625 300° West 389 448 29,800 -1,620 Descending Chicago Center
05:55PM 41.0986 -85.5906 299° West 395 455 27,500 -2,220 Descending Chicago Center
05:57PM 41.1539 -85.7219 299° West 404 465 25,300 -1,260 Descending Chicago Center
05:58PM 41.2372 -85.8639 308° West 405 466 25,000 -180 Descending Chicago Center
05:59PM 41.3144 -85.9778 312° West 405 466 25,000 -780 Level Chicago Center
06:00PM 41.3881 -86.0903 311° West 408 470 23,500 -1,800 Descending Chicago Center
06:01PM 41.4589 -86.1992 311° West 396 456 21,400 -2,160 Descending Chicago Center
06:02PM 41.5286 -86.3050 311° West 382 440 19,100 -2,280 Descending Chicago Center
06:03PM 41.5944 -86.4072 311° West 367 422 16,800 -2,280 Descending Chicago Center
06:04PM 41.6589 -86.5078 311° West 359 413 14,400 -2,220 Descending Chicago Center
06:05PM 41.7356 -86.6236 312° West 350 403 12,200 -1,140 Descending Chicago Center
06:06PM 41.7958 -86.7181 311° West 351 404 12,100 -300 Descending Chicago Center
06:07PM 41.8594 -86.8175 311° West 354 407 11,700 -540 Descending Chicago Center
06:08PM 41.9439 -86.9250 317° Northwest 352 405 11,100 -600 Descending Chicago Center
06:09PM 41.9594 -87.0331 281° West 296 341 10,500 -780 Descending Chicago Center
06:10PM 41.9675 -87.1339 276° West 277 319 9,600 -780 Descending Chicago Center
06:11PM 41.9719 -87.2350 273° West 274 315 9,000 -360 Descending Chicago Center
06:12PM 41.9781 -87.3356 275° West 273 314 8,900 -960 Descending Chicago Center
06:13PM 41.9836 -87.4536 274° West 268 308 7,100 -1,740 Descending Chicago Center
06:14PM 41.9819 -87.5497 269° West 262 302 5,400 -1,680 Descending Chicago Center